Time;durP1;ratioP1;P1;durP2;ratioP2;P2;SDS_P1;SDS_P2;PMS_P1;PMS_P2;Temp;Humidity;BMP_temperature;BMP_pressure;BME280_temperature;BME280_humidity;BME280_pressure;Samples;Min_cycle;Max_cycle;Signal;HPM_P1;HPM_P2
2020/12/03 05:03:07;;;;;;;56.40;26.50;;;2.00;99.90;;;;;;3609980;32;20195;-77
2020/12/03 05:05:44;;;;;;;51.00;25.70;;;1.90;99.90;;;;;;3608581;32;20219;-77
2020/12/03 05:08:23;;;;;;;54.90;25.07;;;1.90;99.90;;;;;;3607634;39;20214;-77
2020/12/03 05:10:48;;;;;;;49.27;23.47;;;1.80;99.90;;;;;;3598345;32;20227;-79
2020/12/03 05:13:25;;;;;;;55.40;26.80;;;1.80;99.90;;;;;;3598901;39;20260;-77
2020/12/03 06:10:22;;;;;;;46.63;22.57;;;2.00;99.90;;;;;;3148874;26;20218;-76
2020/12/03 06:13:35;;;;;;;49.23;23.03;;;1.90;99.90;;;;;;3609289;32;20471;-75
2020/12/03 06:16:18;;;;;;;51.83;24.27;;;1.80;99.90;;;;;;3588644;39;20981;-78
2020/12/03 06:19:02;;;;;;;47.20;21.73;;;1.80;99.90;;;;;;3605399;32;20245;-77
2020/12/03 06:21:36;;;;;;;51.17;22.70;;;1.80;99.90;;;;;;3600589;39;20230;-78
2020/12/03 06:43:10;;;;;;;43.40;21.47;;;1.80;99.90;;;;;;3723869;27;20514;-77
2020/12/03 06:45:47;;;;;;;49.47;24.37;;;1.80;99.90;;;;;;3616975;32;20229;-77
2020/12/03 06:48:48;;;;;;;51.47;23.67;;;1.80;99.90;;;;;;3623254;32;20240;-76
2020/12/03 06:51:41;;;;;;;46.97;22.10;;;1.70;99.90;;;;;;3610325;39;20218;-79
2020/12/03 06:54:40;;;;;;;51.03;23.30;;;1.80;99.90;;;;;;3613205;32;20207;-76
2020/12/03 06:57:44;;;;;;;54.97;23.10;;;1.70;99.90;;;;;;3610278;39;20241;-77
2020/12/03 07:00:41;;;;;;;48.17;22.63;;;1.70;99.90;;;;;;3610142;39;20211;-79
2020/12/03 07:03:51;;;;;;;48.40;21.93;;;1.70;99.90;;;;;;3616507;39;20296;-76
2020/12/03 07:06:44;;;;;;;50.30;22.57;;;1.80;99.90;;;;;;3607031;32;20211;-77
2020/12/03 07:09:47;;;;;;;46.37;21.80;;;1.80;99.90;;;;;;3609558;32;20231;-77
2020/12/03 07:12:46;;;;;;;48.17;21.97;;;1.70;99.90;;;;;;3608809;32;20402;-77
2020/12/03 07:15:42;;;;;;;51.93;26.17;;;1.70;99.90;;;;;;3612282;32;20206;-80
2020/12/03 07:18:29;;;;;;;49.07;22.77;;;1.70;99.90;;;;;;3612069;32;20238;-76
2020/12/03 07:21:16;;;;;;;47.10;21.63;;;1.70;99.90;;;;;;3619858;32;21019;-77
2020/12/03 07:24:02;;;;;;;53.40;24.70;;;1.80;99.90;;;;;;3603753;32;20970;-79
2020/12/03 07:27:04;;;;;;;50.80;24.63;;;1.80;99.90;;;;;;3600114;39;20247;-76
2020/12/03 07:29:59;;;;;;;50.00;22.80;;;1.80;99.90;;;;;;3599996;39;20202;-76
2020/12/03 07:32:59;;;;;;;49.43;22.20;;;1.80;99.90;;;;;;3599970;39;20302;-81
2020/12/03 07:35:51;;;;;;;54.03;23.73;;;1.80;99.90;;;;;;3600017;39;20195;-77
2020/12/03 07:38:26;;;;;;;49.50;23.43;;;1.80;99.90;;;;;;3616212;32;20230;-77
2020/12/03 07:40:53;;;;;;;47.40;22.70;;;1.80;99.90;;;;;;3617268;32;21077;-78
2020/12/03 07:43:24;;;;;;;61.23;26.40;;;1.70;99.90;;;;;;3610331;39;20283;-78
2020/12/03 07:45:51;;;;;;;50.23;22.40;;;1.80;99.90;;;;;;3609850;39;20226;-79
2020/12/03 07:48:18;;;;;;;52.07;24.53;;;1.80;99.90;;;;;;3609962;39;20215;-78
2020/12/03 07:51:01;;;;;;;51.83;23.93;;;1.80;99.90;;;;;;3618569;39;20202;-77
2020/12/03 07:53:28;;;;;;;50.43;24.33;;;1.80;99.90;;;;;;3609810;39;20218;-77
2020/12/03 07:55:53;;;;;;;47.27;23.20;;;1.80;99.90;;;;;;3609939;39;20219;-78
2020/12/03 07:58:30;;;;;;;50.53;23.47;;;1.80;99.90;;;;;;3609952;39;20214;-77
2020/12/03 08:00:56;;;;;;;51.07;23.77;;;1.80;99.90;;;;;;3626676;32;20241;-78
2020/12/03 08:03:46;;;;;;;50.73;23.00;;;1.80;99.90;;;;;;3609741;39;20321;-77
2020/12/03 08:06:47;;;;;;;52.67;24.03;;;1.80;99.90;;;;;;3610328;32;20226;-77
2020/12/03 08:10:37;;;;;;;46.30;21.60;;;1.80;99.90;;;;;;5110584;27;20846;-82
2020/12/03 08:13:41;;;;;;;52.80;23.53;;;1.90;99.90;;;;;;5090569;28;20182;-79
2020/12/03 08:16:12;;;;;;;49.97;24.80;;;1.80;99.90;;;;;;5088896;28;20185;-79
2020/12/03 08:18:57;;;;;;;48.30;22.57;;;1.80;99.90;;;;;;5106218;28;20169;-81
2020/12/03 08:21:37;;;;;;;43.67;21.40;;;1.80;99.90;;;;;;5089228;28;20201;-81
2020/12/03 08:24:03;;;;;;;57.43;25.40;;;1.80;99.90;;;;;;5089121;28;20154;-80
2020/12/03 08:26:29;;;;;;;49.57;22.70;;;1.80;99.90;;;;;;5089806;28;20686;-80
2020/12/03 08:28:55;;;;;;;46.77;22.37;;;1.80;99.90;;;;;;5088711;28;20200;-80
2020/12/03 08:31:21;;;;;;;52.07;23.73;;;1.80;99.90;;;;;;5090143;28;20277;-79
2020/12/03 08:33:52;;;;;;;52.13;23.97;;;1.80;99.90;;;;;;5088846;28;20208;-80
2020/12/03 08:36:18;;;;;;;49.03;23.80;;;1.80;99.90;;;;;;5088763;28;20179;-80
2020/12/03 08:38:53;;;;;;;46.13;20.67;;;1.90;99.90;;;;;;5090324;28;20265;-81
2020/12/03 08:41:22;;;;;;;44.10;22.50;;;1.90;99.90;;;;;;5089948;28;20192;-80
2020/12/03 08:43:54;;;;;;;46.13;21.93;;;2.00;99.90;;;;;;5088656;28;20174;-81
2020/12/03 08:46:23;;;;;;;47.57;23.23;;;2.00;99.90;;;;;;5088515;28;20202;-80
2020/12/03 08:48:49;;;;;;;46.60;22.37;;;2.00;99.90;;;;;;5088583;28;20202;-81
2020/12/03 08:51:16;;;;;;;49.53;21.80;;;2.00;99.90;;;;;;5089595;28;20558;-81
2020/12/03 08:53:48;;;;;;;49.83;23.83;;;2.10;99.90;;;;;;5088492;28;20171;-80
2020/12/03 08:56:23;;;;;;;52.10;24.97;;;2.00;99.90;;;;;;5088173;28;20570;-80
2020/12/03 08:59:03;;;;;;;50.87;24.83;;;2.00;99.90;;;;;;5088348;28;20207;-80
2020/12/03 09:01:31;;;;;;;54.87;25.57;;;2.10;99.90;;;;;;5088238;28;20218;-81
2020/12/03 09:04:00;;;;;;;53.80;24.87;;;2.00;99.90;;;;;;5089713;28;20174;-80
2020/12/03 09:06:32;;;;;;;53.30;24.27;;;2.00;99.90;;;;;;5105288;28;20179;-81
2020/12/03 09:09:00;;;;;;;52.07;22.73;;;2.00;99.90;;;;;;5088453;28;20210;-80
2020/12/03 09:11:26;;;;;;;43.47;21.13;;;2.00;99.90;;;;;;5089432;28;20651;-80
2020/12/03 09:13:54;;;;;;;50.77;22.40;;;2.10;99.90;;;;;;5104940;28;20182;-82
2020/12/03 09:16:25;;;;;;;58.73;24.83;;;2.00;99.90;;;;;;5104855;28;20178;-80
2020/12/03 09:18:50;;;;;;;54.20;24.27;;;2.10;99.90;;;;;;5104982;28;20175;-78
2020/12/03 09:21:25;;;;;;;47.83;22.23;;;2.00;99.90;;;;;;5092726;28;20290;-80
2020/12/03 09:23:53;;;;;;;53.03;23.83;;;2.10;99.90;;;;;;5091499;28;20228;-81
2020/12/03 09:26:29;;;;;;;49.97;22.37;;;2.00;99.90;;;;;;5091216;28;20171;-80
2020/12/03 09:28:55;;;;;;;50.53;22.77;;;2.10;99.90;;;;;;5075568;28;20187;-79
2020/12/03 09:31:21;;;;;;;48.50;22.37;;;2.10;99.90;;;;;;5075436;28;20275;-79
2020/12/03 09:33:50;;;;;;;48.63;22.77;;;2.10;99.90;;;;;;5091041;28;20445;-81
2020/12/03 09:36:15;;;;;;;48.80;21.97;;;2.20;99.90;;;;;;5090898;28;20257;-81
2020/12/03 09:38:42;;;;;;;47.90;22.10;;;2.20;99.90;;;;;;5090961;28;20209;-79
2020/12/03 09:41:10;;;;;;;49.77;24.10;;;2.10;99.90;;;;;;5091012;28;20202;-79
2020/12/03 09:43:39;;;;;;;55.97;24.90;;;2.10;99.90;;;;;;5091033;28;20178;-82
2020/12/03 09:46:12;;;;;;;55.07;24.50;;;2.00;99.90;;;;;;5075039;28;20542;-81
2020/12/03 09:48:38;;;;;;;53.83;24.23;;;2.10;99.90;;;;;;5075340;28;20281;-79
2020/12/03 09:51:04;;;;;;;51.20;22.63;;;2.10;99.90;;;;;;5090623;28;20187;-82
2020/12/03 09:53:32;;;;;;;49.57;23.60;;;2.10;99.90;;;;;;5075289;28;20175;-82
2020/12/03 09:56:01;;;;;;;48.97;22.70;;;2.10;99.90;;;;;;5090466;28;20178;-80
2020/12/03 09:58:27;;;;;;;50.30;22.97;;;2.10;99.90;;;;;;5074835;28;20633;-80
2020/12/03 10:00:54;;;;;;;54.70;25.20;;;2.10;99.90;;;;;;5090357;28;20197;-80
2020/12/03 10:04:07;;;;;;;53.17;24.47;;;2.20;99.90;;;;;;5090506;28;20175;-81
2020/12/03 10:06:52;;;;;;;49.83;22.00;;;2.20;99.90;;;;;;5089846;28;20540;-80
2020/12/03 10:09:32;;;;;;;49.47;22.40;;;2.20;99.90;;;;;;5073235;28;20210;-79
2020/12/03 10:12:29;;;;;;;48.00;22.63;;;2.20;99.90;;;;;;5090250;28;20186;-80
2020/12/03 10:15:11;;;;;;;50.40;23.07;;;2.30;99.90;;;;;;5074447;28;20178;-80
2020/12/03 10:17:58;;;;;;;47.73;21.17;;;2.30;99.90;;;;;;5073267;28;20173;-80
2020/12/03 10:20:24;;;;;;;48.77;22.07;;;2.30;99.90;;;;;;5073378;28;20159;-81
2020/12/03 10:23:08;;;;;;;54.23;24.23;;;2.20;99.90;;;;;;5073336;28;20266;-80
2020/12/03 10:25:40;;;;;;;55.00;23.47;;;2.30;99.90;;;;;;5073214;28;20186;-79
2020/12/03 10:28:21;;;;;;;53.57;23.50;;;2.30;99.90;;;;;;5089674;28;20179;-80
2020/12/03 10:30:48;;;;;;;49.43;23.00;;;2.30;99.90;;;;;;5073013;28;20656;-79
2020/12/03 10:33:15;;;;;;;56.67;23.33;;;2.20;99.90;;;;;;5071722;28;20171;-81
2020/12/03 10:35:50;;;;;;;47.40;22.20;;;2.30;99.90;;;;;;5072926;28;20182;-81
2020/12/03 10:38:24;;;;;;;52.70;23.83;;;2.30;99.90;;;;;;5072853;28;20193;-80
2020/12/03 10:40:55;;;;;;;52.63;23.50;;;2.30;99.90;;;;;;5072656;28;20190;-79
2020/12/03 10:43:26;;;;;;;55.33;24.17;;;2.30;99.90;;;;;;5089481;28;20186;-80
2020/12/03 10:45:55;;;;;;;50.73;22.60;;;2.40;99.90;;;;;;5072633;28;20647;-80
2020/12/03 10:48:24;;;;;;;49.47;22.57;;;2.40;99.90;;;;;;5072616;28;20710;-81
2020/12/03 10:50:56;;;;;;;51.27;23.20;;;2.40;99.90;;;;;;5072553;28;20240;-79
2020/12/03 10:53:24;;;;;;;52.27;22.53;;;2.40;99.90;;;;;;5072457;28;20175;-80
2020/12/03 10:55:58;;;;;;;51.20;22.37;;;2.40;99.90;;;;;;5072361;28;20224;-81
2020/12/03 10:58:28;;;;;;;49.97;22.67;;;2.50;99.90;;;;;;5072586;28;20175;-80
2020/12/03 11:00:55;;;;;;;52.30;24.03;;;2.50;99.90;;;;;;5089602;28;20671;-79
2020/12/03 11:03:28;;;;;;;53.43;23.20;;;2.50;99.90;;;;;;5074136;28;20587;-79
2020/12/03 11:05:55;;;;;;;58.97;23.40;;;2.50;99.90;;;;;;5072993;28;20532;-82
2020/12/03 11:08:21;;;;;;;42.53;20.93;;;2.50;99.90;;;;;;5072584;28;20680;-79
2020/12/03 11:10:52;;;;;;;46.27;20.57;;;2.60;99.90;;;;;;5072882;28;20254;-80
2020/12/03 11:13:20;;;;;;;54.50;23.97;;;2.60;99.90;;;;;;5072451;28;20174;-80
2020/12/03 11:15:47;;;;;;;58.17;25.23;;;2.60;99.90;;;;;;5072450;28;20695;-80
2020/12/03 11:18:19;;;;;;;53.03;22.63;;;2.60;99.90;;;;;;5072452;28;20580;-82
2020/12/03 11:20:51;;;;;;;52.50;23.73;;;2.60;99.90;;;;;;5072435;28;20191;-80
2020/12/03 11:23:22;;;;;;;51.47;22.23;;;2.60;99.90;;;;;;5072510;28;20212;-81
2020/12/03 11:25:51;;;;;;;53.90;22.70;;;2.70;99.90;;;;;;5072560;28;20171;-80
2020/12/03 11:28:29;;;;;;;56.23;24.83;;;2.70;99.90;;;;;;5073434;28;20244;-80
2020/12/03 11:31:03;;;;;;;55.97;24.40;;;2.70;99.90;;;;;;5073488;28;20186;-81
2020/12/03 11:33:30;;;;;;;48.83;20.27;;;2.70;99.90;;;;;;5072250;28;20159;-79
2020/12/03 11:36:15;;;;;;;59.30;24.33;;;2.70;99.90;;;;;;5071931;28;20171;-79
2020/12/03 11:38:50;;;;;;;54.10;23.30;;;2.80;99.90;;;;;;5072285;28;20177;-79
2020/12/03 11:41:33;;;;;;;54.53;22.13;;;2.80;99.90;;;;;;5072308;28;20231;-80
2020/12/03 11:44:15;;;;;;;56.07;23.63;;;2.80;99.90;;;;;;5071904;28;20757;-80
2020/12/03 11:47:08;;;;;;;50.73;23.43;;;2.80;99.90;;;;;;5072176;28;20190;-81
2020/12/03 11:49:30;;;;;;;50.80;21.33;;;2.90;99.90;;;;;;5073602;28;20198;-80
2020/12/03 11:51:56;;;;;;;48.50;21.27;;;2.90;99.90;;;;;;5071981;28;20195;-80
2020/12/03 11:54:28;;;;;;;54.53;22.33;;;2.90;99.90;;;;;;5073314;28;20182;-80
2020/12/03 11:56:57;;;;;;;51.03;22.10;;;2.90;99.90;;;;;;5072245;28;20206;-79
2020/12/03 11:59:30;;;;;;;47.17;21.10;;;3.00;99.90;;;;;;5072079;28;20175;-79
2020/12/03 12:02:02;;;;;;;54.73;23.77;;;3.00;99.90;;;;;;5073438;28;20281;-81
2020/12/03 12:09:56;;;;;;;50.37;22.13;;;3.00;99.90;;;;;;5072967;28;20222;-79
2020/12/03 12:12:24;;;;;;;49.67;22.67;;;3.00;99.90;;;;;;5088697;28;20250;-80
2020/12/03 12:14:49;;;;;;;51.20;22.13;;;3.10;99.90;;;;;;5088472;28;20166;-80
2020/12/03 12:17:17;;;;;;;46.33;21.70;;;3.10;99.90;;;;;;5071543;28;20178;-80
2020/12/03 12:19:44;;;;;;;54.03;23.00;;;3.10;99.90;;;;;;5071750;28;20671;-81
2020/12/03 12:22:12;;;;;;;49.23;23.37;;;3.10;99.90;;;;;;5071936;28;20205;-80
2020/12/03 12:24:42;;;;;;;52.20;23.73;;;3.10;99.90;;;;;;5072035;28;20185;-80
2020/12/03 12:27:08;;;;;;;50.43;21.97;;;3.10;99.90;;;;;;5071618;28;20280;-81
2020/12/03 12:29:33;;;;;;;44.23;20.03;;;3.10;99.90;;;;;;5073262;28;20277;-80
2020/12/03 12:31:59;;;;;;;51.87;22.60;;;3.10;99.90;;;;;;5082281;28;20378;-81
2020/12/03 12:34:25;;;;;;;48.40;22.10;;;3.10;99.90;;;;;;5062740;28;20190;-79
2020/12/03 12:36:50;;;;;;;47.03;20.63;;;3.10;99.90;;;;;;5058559;28;20187;-81
2020/12/03 12:39:16;;;;;;;47.20;19.93;;;3.10;99.90;;;;;;5081470;28;20194;-81
2020/12/03 12:41:56;;;;;;;46.63;20.90;;;3.10;99.90;;;;;;5080978;28;20199;-81
2020/12/03 12:44:21;;;;;;;53.20;23.67;;;3.10;99.90;;;;;;5065490;28;20664;-80
2020/12/03 12:46:57;;;;;;;50.73;23.07;;;3.10;99.90;;;;;;5061963;28;20186;-80
2020/12/03 12:49:23;;;;;;;50.97;22.60;;;3.10;99.90;;;;;;5076967;28;20207;-81
2020/12/03 12:51:49;;;;;;;46.43;21.77;;;3.00;99.90;;;;;;5086912;28;20304;-79
2020/12/03 12:54:15;;;;;;;47.07;21.20;;;3.10;99.90;;;;;;5057553;28;20219;-82
2020/12/03 12:56:42;;;;;;;47.20;22.03;;;3.10;99.90;;;;;;5072482;28;20647;-81
2020/12/03 12:59:07;;;;;;;49.67;21.97;;;3.10;99.90;;;;;;5057418;28;20274;-80
2020/12/03 13:01:33;;;;;;;47.90;21.50;;;3.10;99.90;;;;;;5077392;28;20228;-80
2020/12/03 13:03:59;;;;;;;49.40;22.63;;;3.10;99.90;;;;;;5082962;28;20210;-80
2020/12/03 13:06:25;;;;;;;46.23;20.93;;;3.10;99.90;;;;;;5067890;28;20184;-80
2020/12/03 13:08:51;;;;;;;50.93;22.67;;;3.10;99.90;;;;;;5087967;28;20221;-80
2020/12/03 13:11:16;;;;;;;55.07;23.73;;;3.10;99.90;;;;;;5074599;28;20277;-80
2020/12/03 13:13:42;;;;;;;49.13;23.17;;;3.00;99.90;;;;;;5065304;28;20224;-81
2020/12/03 13:16:07;;;;;;;50.90;22.03;;;3.00;99.90;;;;;;5082079;28;20183;-82
2020/12/03 13:18:33;;;;;;;52.20;22.53;;;3.00;99.90;;;;;;5083712;28;20200;-80
2020/12/03 13:20:58;;;;;;;56.60;23.37;;;3.00;99.90;;;;;;5081268;28;20207;-81
2020/12/03 13:23:24;;;;;;;55.07;23.57;;;2.90;99.90;;;;;;5071139;28;20192;-80
2020/12/03 13:25:50;;;;;;;48.53;23.03;;;2.90;99.90;;;;;;5071796;28;20266;-84
2020/12/03 13:28:55;;;;;;;46.13;21.50;;;2.90;99.90;;;;;;5085150;28;20282;-80
2020/12/03 13:31:20;;;;;;;52.07;21.07;;;2.90;99.90;;;;;;5061705;28;20235;-81
2020/12/03 13:33:46;;;;;;;47.83;21.17;;;2.90;99.90;;;;;;5070703;28;20210;-82
2020/12/03 13:36:12;;;;;;;58.03;23.10;;;2.90;99.90;;;;;;5066859;28;20370;-80
2020/12/03 13:38:37;;;;;;;44.17;21.80;;;2.90;99.90;;;;;;5084763;28;20211;-80
2020/12/03 13:41:03;;;;;;;52.17;23.87;;;2.90;99.90;;;;;;5067946;28;20732;-80
2020/12/03 13:43:30;;;;;;;49.90;22.07;;;3.00;99.90;;;;;;5075479;28;20198;-81
2020/12/03 13:45:56;;;;;;;52.20;24.63;;;3.00;99.90;;;;;;5090284;28;20653;-80
2020/12/03 13:48:22;;;;;;;54.80;24.20;;;3.00;99.90;;;;;;5088294;28;20550;-81
2020/12/03 13:50:48;;;;;;;52.57;22.53;;;2.90;99.90;;;;;;5074119;28;20280;-80
2020/12/03 13:53:13;;;;;;;48.50;22.13;;;2.90;99.90;;;;;;5071421;28;20175;-81
2020/12/03 13:55:39;;;;;;;52.73;23.63;;;2.90;99.90;;;;;;5091291;28;20163;-80
2020/12/03 13:58:04;;;;;;;52.90;22.43;;;2.90;99.90;;;;;;5075024;28;20253;-82
2020/12/03 14:00:30;;;;;;;49.13;22.57;;;2.90;99.90;;;;;;5084400;28;20179;-79
2020/12/03 14:02:55;;;;;;;54.03;23.63;;;2.90;99.90;;;;;;5067056;28;20266;-80
2020/12/03 14:05:21;;;;;;;46.93;22.40;;;2.90;99.90;;;;;;5063574;28;20641;-80
2020/12/03 14:07:46;;;;;;;46.17;21.17;;;2.80;99.90;;;;;;5070178;28;20214;-82
2020/12/03 14:10:12;;;;;;;56.25;29.60;;;2.80;99.90;;;;;;5061174;28;20465;-80
2020/12/03 14:12:38;;;;;;;55.77;25.30;;;2.90;99.90;;;;;;5073715;28;20205;-81
2020/12/03 14:15:04;;;;;;;61.25;32.20;;;2.90;99.90;;;;;;5079032;28;20562;-82
2020/12/03 14:17:30;;;;;;;57.57;27.07;;;2.90;99.90;;;;;;5060308;28;20217;-80
2020/12/03 14:19:55;;;;;;;53.53;24.87;;;2.90;99.90;;;;;;5081422;28;20176;-80
2020/12/03 14:22:21;;;;;;;63.10;26.13;;;2.90;99.90;;;;;;5061143;28;20736;-80
2020/12/03 14:24:47;;;;;;;55.13;22.73;;;2.90;99.90;;;;;;5063696;28;20205;-81
2020/12/03 14:27:12;;;;;;;52.40;23.37;;;2.80;99.90;;;;;;5079904;28;20213;-80
2020/12/03 14:29:38;;;;;;;50.57;22.87;;;2.80;99.90;;;;;;5087182;28;20199;-80
2020/12/03 14:32:03;;;;;;;47.60;19.93;;;2.80;99.90;;;;;;5070930;28;20191;-80
2020/12/03 14:34:29;;;;;;;53.72;27.80;;;2.70;99.90;;;;;;5070036;28;20443;-81
2020/12/03 14:36:54;;;;;;;51.70;22.27;;;2.80;99.90;;;;;;5066834;28;20671;-80
2020/12/03 14:39:20;;;;;;;55.80;23.27;;;2.80;99.90;;;;;;5053091;28;20259;-82
2020/12/03 14:41:47;;;;;;;51.10;24.17;;;2.90;99.90;;;;;;5053767;28;20290;-81
2020/12/03 14:44:13;;;;;;;49.63;21.47;;;2.80;99.90;;;;;;5053088;28;20304;-80
2020/12/03 14:46:39;;;;;;;46.90;20.97;;;2.80;99.90;;;;;;5053259;28;20187;-79
2020/12/03 14:49:04;;;;;;;44.50;20.63;;;2.80;99.90;;;;;;5052840;28;20592;-80
2020/12/03 14:51:36;;;;;;;52.40;22.90;;;2.90;99.90;;;;;;5052883;28;20220;-80
2020/12/03 14:54:01;;;;;;;46.90;20.63;;;2.90;99.90;;;;;;5055564;28;20545;-80
2020/12/03 14:56:27;;;;;;;51.00;21.70;;;2.80;99.90;;;;;;5082849;28;20180;-80
2020/12/03 14:58:56;;;;;;;45.77;20.77;;;2.80;99.90;;;;;;5075355;28;20559;-82
2020/12/03 15:01:22;;;;;;;54.40;22.73;;;2.80;99.90;;;;;;5078358;28;20203;-81
2020/12/03 15:03:47;;;;;;;53.07;21.07;;;2.80;99.90;;;;;;5069643;28;20228;-81
2020/12/03 15:06:13;;;;;;;52.90;23.03;;;2.80;99.90;;;;;;5072681;28;20182;-81
2020/12/03 15:08:38;;;;;;;38.10;18.30;;;2.80;99.90;;;;;;5072046;28;20217;-82
2020/12/03 15:11:05;;;;;;;49.87;21.93;;;2.80;99.90;;;;;;5069358;28;20282;-80
2020/12/03 15:13:31;;;;;;;52.73;23.03;;;2.80;99.90;;;;;;5053978;28;20633;-81
2020/12/03 15:15:56;;;;;;;46.30;21.53;;;2.70;99.90;;;;;;5069014;28;20217;-80
2020/12/03 15:18:23;;;;;;;50.17;21.90;;;2.80;99.90;;;;;;5084721;28;20236;-79
2020/12/03 15:20:50;;;;;;;43.00;20.20;;;2.70;99.90;;;;;;5089467;28;20542;-80
2020/12/03 15:23:17;;;;;;;47.77;19.20;;;2.70;99.90;;;;;;5089487;28;20179;-80
2020/12/03 15:25:43;;;;;;;46.97;20.40;;;2.70;99.90;;;;;;5068944;28;20514;-80
2020/12/03 15:28:09;;;;;;;45.60;20.50;;;2.70;99.90;;;;;;5073100;28;20582;-81
2020/12/03 15:30:35;;;;;;;45.83;20.03;;;2.70;99.90;;;;;;5089087;28;20220;-80
2020/12/03 15:33:01;;;;;;;48.43;22.23;;;2.70;99.90;;;;;;5089176;28;20676;-80
2020/12/03 15:35:26;;;;;;;43.37;18.87;;;2.70;99.90;;;;;;5087161;28;20182;-81
2020/12/03 15:37:52;;;;;;;46.67;19.50;;;2.70;99.90;;;;;;5072071;28;20270;-80
2020/12/03 15:40:17;;;;;;;48.57;23.27;;;2.70;99.90;;;;;;5069618;28;20412;-80
2020/12/03 15:42:43;;;;;;;48.40;21.30;;;2.60;99.90;;;;;;5085702;28;20610;-79
2020/12/03 15:45:09;;;;;;;48.70;20.60;;;2.60;99.90;;;;;;5072106;28;20187;-81
2020/12/03 15:47:35;;;;;;;49.80;22.30;;;2.60;99.90;;;;;;5087352;28;20186;-80
2020/12/03 15:50:01;;;;;;;46.40;19.93;;;2.50;99.90;;;;;;5075898;28;20612;-78
2020/12/03 15:52:27;;;;;;;51.43;19.67;;;2.50;99.90;;;;;;5074921;28;20716;-79
2020/12/03 15:54:54;;;;;;;48.73;21.43;;;2.50;99.90;;;;;;5067866;28;20176;-79
2020/12/03 15:57:20;;;;;;;44.07;20.20;;;2.50;99.90;;;;;;5081303;28;20206;-81
2020/12/03 15:59:47;;;;;;;50.70;21.00;;;2.40;99.90;;;;;;5076337;28;20179;-80
2020/12/03 16:02:12;;;;;;;46.10;20.37;;;2.50;99.90;;;;;;5081260;28;20211;-81
2020/12/03 16:04:39;;;;;;;48.13;20.07;;;2.50;99.90;;;;;;5071303;28;20183;-80
2020/12/03 16:07:05;;;;;;;48.70;20.80;;;2.50;99.90;;;;;;5071698;28;20202;-82
2020/12/03 16:09:32;;;;;;;46.93;20.37;;;2.50;99.90;;;;;;5067004;28;20236;-78
2020/12/03 16:12:02;;;;;;;45.47;19.63;;;2.50;99.90;;;;;;5060127;28;20285;-80
2020/12/03 16:14:27;;;;;;;50.67;19.57;;;2.50;99.90;;;;;;5071295;28;20639;-81
2020/12/03 16:16:53;;;;;;;45.73;18.50;;;2.50;99.90;;;;;;5087850;28;20205;-79
2020/12/03 16:19:19;;;;;;;46.00;20.27;;;2.50;99.90;;;;;;5065286;28;20224;-79
2020/12/03 16:21:45;;;;;;;48.03;20.17;;;2.50;99.90;;;;;;5074341;28;20202;-80
2020/12/03 16:24:12;;;;;;;42.70;18.93;;;2.50;99.90;;;;;;5074367;28;20180;-79
2020/12/03 16:26:37;;;;;;;39.43;18.70;;;2.50;99.90;;;;;;5063275;28;20182;-81
2020/12/03 16:29:03;;;;;;;45.17;18.63;;;2.50;99.90;;;;;;5082938;28;20562;-80
2020/12/03 16:31:38;;;;;;;47.50;20.23;;;2.60;99.90;;;;;;5070019;28;20195;-80
2020/12/03 16:34:05;;;;;;;45.97;19.13;;;2.60;99.90;;;;;;5085182;28;20183;-81
2020/12/03 16:36:33;;;;;;;44.23;18.27;;;2.60;99.90;;;;;;5069960;28;20178;-80
2020/12/03 16:38:59;;;;;;;49.77;20.77;;;2.70;99.90;;;;;;5071511;28;20294;-80
2020/12/03 16:41:27;;;;;;;42.17;19.30;;;2.60;99.90;;;;;;5073059;28;20752;-81
2020/12/03 16:43:53;;;;;;;44.07;19.23;;;2.50;99.90;;;;;;5071443;28;20232;-79
2020/12/03 16:46:19;;;;;;;49.53;20.13;;;2.50;99.90;;;;;;5083635;28;20589;-80
2020/12/03 16:48:45;;;;;;;42.77;19.07;;;2.50;99.90;;;;;;5071054;28;20203;-81
2020/12/03 16:51:12;;;;;;;43.17;19.03;;;2.50;99.90;;;;;;5082333;28;20290;-80
2020/12/03 16:53:38;;;;;;;42.80;18.60;;;2.50;99.90;;;;;;5068216;28;20649;-81
2020/12/03 16:56:04;;;;;;;42.30;17.53;;;2.60;99.90;;;;;;5073264;28;20729;-81
2020/12/03 16:58:31;;;;;;;43.07;17.40;;;2.60;99.90;;;;;;5069605;28;20293;-81
2020/12/03 17:00:56;;;;;;;48.93;18.83;;;2.60;99.90;;;;;;5086436;28;20711;-81
2020/12/03 17:03:22;;;;;;;42.97;17.67;;;2.60;99.90;;;;;;5075680;28;20179;-80
2020/12/03 17:05:47;;;;;;;39.90;18.93;;;2.60;99.90;;;;;;5081292;28;20179;-80
2020/12/03 17:08:14;;;;;;;50.13;19.70;;;2.60;99.90;;;;;;5070405;28;20191;-80
2020/12/03 17:10:52;;;;;;;40.87;16.97;;;2.60;99.90;;;;;;5081935;28;20290;-82
2020/12/03 17:13:17;;;;;;;47.63;19.50;;;2.60;99.90;;;;;;5077322;28;20180;-80
2020/12/03 17:15:43;;;;;;;39.77;16.73;;;2.50;99.90;;;;;;5077843;28;20543;-80
2020/12/03 17:18:08;;;;;;;40.07;18.07;;;2.50;99.90;;;;;;5081844;28;20180;-79
2020/12/03 17:20:34;;;;;;;43.03;18.43;;;2.50;99.90;;;;;;5065531;28;20213;-80
2020/12/03 17:22:59;;;;;;;43.87;18.63;;;2.50;99.90;;;;;;5070476;28;20552;-80
2020/12/03 17:25:25;;;;;;;42.27;17.90;;;2.60;99.90;;;;;;5071862;28;20622;-81
2020/12/03 17:27:50;;;;;;;38.50;17.13;;;2.60;99.90;;;;;;5085912;28;20416;-80
2020/12/03 17:30:16;;;;;;;40.57;18.30;;;2.60;99.90;;;;;;5073330;28;20208;-81
2020/12/03 17:32:41;;;;;;;40.43;16.43;;;2.60;99.90;;;;;;5082535;28;20203;-80
2020/12/03 17:35:07;;;;;;;37.70;16.47;;;2.60;99.90;;;;;;5068898;28;20182;-81
2020/12/03 17:37:37;;;;;;;42.50;18.23;;;2.60;99.90;;;;;;5089790;28;20258;-82
2020/12/03 17:40:04;;;;;;;41.93;18.23;;;2.50;99.90;;;;;;5071997;28;20210;-81
2020/12/03 17:42:29;;;;;;;40.03;17.33;;;2.60;99.90;;;;;;5073531;28;20206;-80
2020/12/03 17:44:57;;;;;;;34.03;15.63;;;2.60;99.90;;;;;;5074290;28;20179;-80
2020/12/03 17:47:22;;;;;;;43.83;21.13;;;2.60;99.90;;;;;;5088864;28;20434;-82
2020/12/03 17:49:49;;;;;;;49.87;19.63;;;2.70;99.90;;;;;;5089180;28;20206;-81
2020/12/03 17:52:14;;;;;;;37.90;17.20;;;2.60;99.90;;;;;;5066748;28;20202;-81
2020/12/03 17:54:40;;;;;;;37.10;16.93;;;2.70;99.90;;;;;;5063142;28;20206;-80
2020/12/03 17:57:07;;;;;;;39.93;18.27;;;2.70;99.90;;;;;;5075523;28;20829;-82
2020/12/03 17:59:40;;;;;;;39.50;16.40;;;2.70;99.90;;;;;;5068053;28;20233;-81
2020/12/03 18:02:07;;;;;;;41.13;17.93;;;2.70;99.90;;;;;;5071339;28;20281;-79
2020/12/03 18:04:33;;;;;;;36.80;16.63;;;2.80;99.90;;;;;;5083787;28;20175;-82
2020/12/03 18:06:59;;;;;;;41.80;19.83;;;2.80;99.90;;;;;;5062944;28;20202;-81
2020/12/03 18:09:25;;;;;;;40.27;18.37;;;2.70;99.90;;;;;;5070800;28;20230;-81
2020/12/03 18:11:52;;;;;;;44.73;17.50;;;2.80;99.90;;;;;;5076242;28;20195;-81
2020/12/03 18:14:18;;;;;;;40.80;18.57;;;2.70;99.90;;;;;;5055050;28;20163;-81
2020/12/03 18:16:44;;;;;;;42.63;18.20;;;2.70;99.90;;;;;;5065625;28;20178;-82
2020/12/03 18:19:10;;;;;;;41.57;19.23;;;2.70;99.90;;;;;;5069349;28;20182;-80
2020/12/03 18:21:36;;;;;;;37.80;15.77;;;2.60;99.90;;;;;;5084408;28;20703;-79
2020/12/03 18:24:01;;;;;;;44.97;19.43;;;2.60;99.90;;;;;;5062311;28;20179;-80
2020/12/03 18:26:34;;;;;;;41.67;19.13;;;2.50;99.90;;;;;;5072950;28;20190;-81
2020/12/03 18:29:06;;;;;;;40.43;19.13;;;2.60;99.90;;;;;;5086803;28;20210;-82
2020/12/03 18:31:40;;;;;;;41.93;18.97;;;2.60;99.90;;;;;;5067688;28;20564;-82
2020/12/03 18:34:07;;;;;;;34.83;17.03;;;2.50;99.90;;;;;;5084939;28;20217;-82
2020/12/03 18:36:33;;;;;;;43.30;18.20;;;2.60;99.90;;;;;;5069576;28;20640;-81
2020/12/03 18:38:59;;;;;;;41.93;17.83;;;2.60;99.90;;;;;;5089670;28;20182;-80
2020/12/03 18:41:26;;;;;;;35.80;16.30;;;2.60;99.90;;;;;;5071839;28;20199;-84
2020/12/03 18:43:51;;;;;;;39.13;18.03;;;2.60;99.90;;;;;;5066087;28;20540;-81
2020/12/03 18:46:17;;;;;;;42.33;17.37;;;2.60;99.90;;;;;;5068285;28;20175;-80
2020/12/03 18:48:43;;;;;;;36.97;17.03;;;2.60;99.90;;;;;;5070943;28;20203;-81
2020/12/03 18:51:08;;;;;;;41.70;16.87;;;2.60;99.90;;;;;;5079667;28;20368;-79
2020/12/03 18:53:34;;;;;;;40.80;17.53;;;2.60;99.90;;;;;;5068078;28;20171;-81
2020/12/03 18:55:59;;;;;;;36.20;16.90;;;2.60;99.90;;;;;;5080002;28;20170;-81
2020/12/03 18:58:25;;;;;;;42.13;18.73;;;2.60;99.90;;;;;;5066098;28;20175;-80
2020/12/03 19:00:50;;;;;;;36.50;17.17;;;2.70;99.90;;;;;;5065668;28;20201;-81
2020/12/03 19:03:19;;;;;;;40.87;17.47;;;2.60;99.90;;;;;;5068660;28;20269;-82
2020/12/03 19:05:45;;;;;;;35.67;16.57;;;2.60;99.90;;;;;;5065355;28;20178;-81
2020/12/03 19:08:15;;;;;;;41.53;17.13;;;2.60;99.90;;;;;;5080664;28;20207;-79
2020/12/03 19:10:41;;;;;;;38.70;17.27;;;2.60;99.90;;;;;;5070922;28;20691;-80
2020/12/03 19:13:09;;;;;;;41.07;17.07;;;2.60;99.90;;;;;;5068884;28;20191;-80
2020/12/03 19:15:36;;;;;;;43.07;18.40;;;2.50;99.90;;;;;;5074990;28;20178;-80